Terminal Aerodrome Forecast
Issued by NWS Charleston, WV

Current Version | Previous Version | Graphics & Text | Print | Product List | Glossary On
Versions: 1 2 3 4 5 6 7 8 9 10 11 12 13 14 15 16 17 18 19 20 21 22 23 24 25 26
000
FTUS41 KRLX 221510 AAA
TAFHTS
TAF AMD
KHTS 221510Z 2215/2312 02008KT 3SM +SHRA OVC010
      TEMPO 2215/2219 2SM +SHRA OVC008
     FM221900 04008KT 6SM -SHRA OVC010
     FM222200 04008KT P6SM OVC020
     FM230500 04006KT P6SM OVC030=

USA.gov is the U.S. government's official web portal to all federal, state and local government web resources and services.